Terminal Aerodrome Forecast
Issued by NWS

Home | Current Version | Previous Version | Text Only | Print | Product List | Glossary Off
Versions: 1 2 3 4 5 6 7 8 9 10 11 12 13 14 15 16 17 18 19 20

757
FTUS43 KGRB 221720
TAFAUW
TAF
KAUW 221720Z 2218/2318 32011G17KT P6SM SCT040
     FM230000 30008KT P6SM FEW050
     FM231600 32008KT P6SM SCT035=

USA.gov is the U.S. government's official web portal to all federal, state and local government web resources and services.